Time;durP1;ratioP1;P1;durP2;ratioP2;P2;SDS_P1;SDS_P2;PMS_P1;PMS_P2;Temp;Humidity;BMP_temperature;BMP_pressure;BME280_temperature;BME280_humidity;BME280_pressure;Samples;Min_cycle;Max_cycle;Signal;HPM_P1;HPM_P2
2021/12/03 00:01:00;;;;;;;5.97;2.47;;;1.50;99.90;;;;;;5033147;28;20052;-71
2021/12/03 00:03:26;;;;;;;4.30;1.85;;;1.50;99.90;;;;;;5062183;28;20822;-71
2021/12/03 00:05:53;;;;;;;4.88;2.05;;;1.50;99.90;;;;;;5033207;28;20033;-71
2021/12/03 00:08:19;;;;;;;4.53;2.00;;;1.40;99.90;;;;;;5031784;28;20537;-71
2021/12/03 00:10:49;;;;;;;4.13;1.75;;;1.30;99.90;;;;;;5030505;28;20080;-71
2021/12/03 00:13:15;;;;;;;3.55;1.77;;;1.50;99.90;;;;;;5027401;28;20033;-71
2021/12/03 00:15:41;;;;;;;3.38;1.63;;;1.60;99.90;;;;;;5033350;28;20044;-71
2021/12/03 00:18:06;;;;;;;6.72;1.63;;;1.50;99.90;;;;;;5030584;28;20056;-71
2021/12/03 00:20:35;;;;;;;4.70;1.73;;;1.40;99.90;;;;;;5031598;28;20045;-71
2021/12/03 00:23:03;;;;;;;3.63;1.60;;;1.40;99.90;;;;;;5031630;28;20094;-71
2021/12/03 00:25:30;;;;;;;4.57;1.60;;;1.40;99.90;;;;;;5032108;28;20050;-71
2021/12/03 00:27:55;;;;;;;4.28;1.77;;;1.40;99.90;;;;;;5031296;28;20045;-71
2021/12/03 00:30:21;;;;;;;4.47;1.48;;;1.40;99.90;;;;;;5015623;28;20439;-71
2021/12/03 00:32:47;;;;;;;4.22;1.50;;;1.40;99.90;;;;;;5031300;28;20048;-71
2021/12/03 00:35:15;;;;;;;3.45;1.45;;;1.30;99.90;;;;;;5032537;28;20521;-71
2021/12/03 00:37:42;;;;;;;5.18;1.60;;;1.20;99.90;;;;;;5030792;28;20041;-72
2021/12/03 00:40:16;;;;;;;5.10;1.92;;;1.30;99.90;;;;;;5029893;28;20029;-71
2021/12/03 00:42:41;;;;;;;7.63;1.67;;;1.20;99.90;;;;;;5028380;28;20049;-72
2021/12/03 00:45:12;;;;;;;3.75;1.42;;;1.10;99.90;;;;;;5014648;28;20507;-72
2021/12/03 00:47:38;;;;;;;4.60;1.80;;;1.20;99.90;;;;;;5045909;28;20470;-72
2021/12/03 00:50:05;;;;;;;5.15;1.70;;;1.30;99.90;;;;;;5031727;28;20126;-71
2021/12/03 00:52:31;;;;;;;4.07;1.38;;;1.50;99.90;;;;;;5031781;28;20029;-72
2021/12/03 00:54:57;;;;;;;4.82;1.60;;;1.60;99.90;;;;;;5030582;28;20528;-71
2021/12/03 00:57:23;;;;;;;4.40;1.60;;;1.60;99.90;;;;;;5029090;28;20486;-72
2021/12/03 00:59:48;;;;;;;4.43;1.40;;;1.70;99.90;;;;;;5030619;28;20491;-72
2021/12/03 01:02:16;;;;;;;5.63;1.65;;;1.70;99.90;;;;;;5032855;28;20045;-72
2021/12/03 01:04:42;;;;;;;4.10;1.60;;;1.80;99.90;;;;;;5014303;28;20044;-72
2021/12/03 01:07:07;;;;;;;3.55;1.48;;;1.90;99.90;;;;;;5032652;28;20083;-72
2021/12/03 01:09:33;;;;;;;6.38;1.50;;;1.80;99.90;;;;;;5028691;28;20040;-72
2021/12/03 01:11:59;;;;;;;3.78;1.65;;;1.80;99.90;;;;;;5031281;28;20038;-72
2021/12/03 01:14:25;;;;;;;4.82;1.70;;;1.80;99.90;;;;;;5030780;28;20050;-72
2021/12/03 01:16:51;;;;;;;7.55;1.95;;;1.80;99.90;;;;;;5030433;28;20482;-72
2021/12/03 01:19:17;;;;;;;4.43;1.67;;;1.80;99.90;;;;;;5029659;28;20044;-72
2021/12/03 01:21:43;;;;;;;6.88;1.90;;;1.80;99.90;;;;;;5031404;28;20041;-72
2021/12/03 01:24:09;;;;;;;3.42;1.60;;;1.80;99.90;;;;;;5030093;28;20067;-72
2021/12/03 01:26:35;;;;;;;5.68;1.67;;;1.90;99.90;;;;;;5030069;28;20171;-72
2021/12/03 01:29:03;;;;;;;4.78;1.90;;;1.80;99.90;;;;;;5013934;28;20037;-72
2021/12/03 01:31:28;;;;;;;6.38;2.50;;;1.90;99.90;;;;;;5032455;28;20127;-72
2021/12/03 01:33:54;;;;;;;8.25;2.78;;;2.00;99.90;;;;;;5031403;28;20081;-72
2021/12/03 01:36:20;;;;;;;6.07;2.80;;;2.00;99.90;;;;;;5032512;28;20042;-72
2021/12/03 01:38:46;;;;;;;8.95;2.90;;;2.00;99.90;;;;;;5030190;28;20041;-72
2021/12/03 01:41:12;;;;;;;6.70;2.70;;;2.00;99.90;;;;;;5030130;28;20033;-72
2021/12/03 01:43:38;;;;;;;10.00;3.20;;;2.10;99.90;;;;;;5030765;28;20653;-72
2021/12/03 01:46:08;;;;;;;9.23;3.10;;;2.10;99.90;;;;;;5030526;28;20044;-72
2021/12/03 01:48:35;;;;;;;10.43;3.40;;;2.10;99.90;;;;;;5031427;28;20501;-72
2021/12/03 01:51:01;;;;;;;9.82;3.53;;;2.20;99.90;;;;;;5031314;28;20042;-72
2021/12/03 01:53:30;;;;;;;9.38;3.40;;;2.20;99.90;;;;;;5030849;28;20505;-72
2021/12/03 01:56:00;;;;;;;8.90;3.03;;;2.20;99.90;;;;;;5029917;28;20519;-72
2021/12/03 01:58:25;;;;;;;9.50;3.35;;;2.20;99.90;;;;;;5030658;28;20030;-72
2021/12/03 02:00:57;;;;;;;7.85;3.22;;;2.20;99.90;;;;;;5029520;28;20048;-72
2021/12/03 02:03:24;;;;;;;;;;;2.30;99.90;;;;;;5028841;28;20087;-72
2021/12/03 02:05:51;;;;;;;6.43;2.78;;;2.20;99.90;;;;;;5030598;28;19935;-72
2021/12/03 02:08:17;;;;;;;9.13;3.50;;;2.20;99.90;;;;;;5028643;28;20033;-72
2021/12/03 02:10:43;;;;;;;9.38;3.60;;;2.30;99.90;;;;;;5030718;28;20133;-72
2021/12/03 02:13:11;;;;;;;10.43;4.15;;;2.30;99.90;;;;;;5029319;28;20061;-72
2021/12/03 02:15:37;;;;;;;9.32;3.53;;;2.30;99.90;;;;;;5031017;28;20409;-72
2021/12/03 02:18:05;;;;;;;8.75;3.17;;;2.30;99.90;;;;;;5029481;28;20033;-72
2021/12/03 02:20:32;;;;;;;9.48;3.47;;;2.30;99.90;;;;;;5031281;28;20033;-72
2021/12/03 02:22:58;;;;;;;8.73;3.22;;;2.20;99.90;;;;;;5030631;28;20482;-72
2021/12/03 02:25:25;;;;;;;7.72;3.05;;;2.30;99.90;;;;;;5028334;28;20052;-72
2021/12/03 02:27:54;;;;;;;7.28;3.25;;;2.30;99.90;;;;;;5029115;28;20490;-72
2021/12/03 02:30:21;;;;;;;8.13;3.88;;;2.30;99.90;;;;;;5034511;28;20394;-72
2021/12/03 02:32:49;;;;;;;10.02;4.10;;;2.30;99.90;;;;;;5034226;28;20378;-72
2021/12/03 02:35:16;;;;;;;7.95;4.18;;;2.30;99.90;;;;;;5034737;28;20041;-72
2021/12/03 02:37:42;;;;;;;8.60;3.65;;;2.30;99.90;;;;;;5033492;28;20041;-72
2021/12/03 02:40:09;;;;;;;6.60;3.42;;;2.40;99.90;;;;;;5034097;28;20044;-72
2021/12/03 02:42:35;;;;;;;10.98;4.07;;;2.40;99.90;;;;;;5033319;28;20045;-72
2021/12/03 02:45:02;;;;;;;12.88;5.07;;;2.30;99.90;;;;;;5014279;28;20033;-72
2021/12/03 02:47:28;;;;;;;9.77;5.38;;;2.30;99.90;;;;;;5031622;28;20043;-72
2021/12/03 02:49:53;;;;;;;10.68;5.40;;;2.30;99.90;;;;;;5032753;28;20030;-72
2021/12/03 02:52:19;;;;;;;11.05;5.65;;;2.40;99.90;;;;;;5033369;28;20389;-72
2021/12/03 02:54:44;;;;;;;11.30;6.40;;;2.30;99.90;;;;;;5031621;28;20041;-72
2021/12/03 02:57:10;;;;;;;10.77;6.65;;;2.30;99.90;;;;;;5033917;28;20030;-72
2021/12/03 02:59:36;;;;;;;11.65;6.82;;;2.30;99.90;;;;;;5034163;28;20494;-72
2021/12/03 03:02:02;;;;;;;11.02;6.25;;;2.40;99.90;;;;;;5034820;28;20108;-72
2021/12/03 03:04:28;;;;;;;14.25;7.05;;;2.40;99.90;;;;;;5031907;28;20049;-72
2021/12/03 03:06:54;;;;;;;12.30;7.55;;;2.30;99.90;;;;;;5016984;28;20091;-72
2021/12/03 03:09:20;;;;;;;11.40;7.28;;;2.30;99.90;;;;;;5033558;28;20075;-72
2021/12/03 03:11:45;;;;;;;11.00;6.80;;;2.30;99.90;;;;;;5033820;28;20061;-72
2021/12/03 03:14:11;;;;;;;12.57;7.93;;;2.30;99.90;;;;;;5031480;28;20042;-72
2021/12/03 03:16:37;;;;;;;13.60;8.50;;;2.40;99.90;;;;;;5013702;28;20037;-72
2021/12/03 03:19:11;;;;;;;12.80;8.18;;;2.40;99.90;;;;;;5033432;28;20034;-72
2021/12/03 03:21:37;;;;;;;12.82;8.25;;;2.30;99.90;;;;;;5030474;28;20057;-72
2021/12/03 03:24:04;;;;;;;13.00;9.35;;;2.30;99.90;;;;;;5031801;28;20049;-72
2021/12/03 03:26:30;;;;;;;12.35;8.23;;;2.30;99.90;;;;;;5016937;28;20044;-72
2021/12/03 03:28:57;;;;;;;14.02;8.35;;;2.30;99.90;;;;;;5032221;28;20037;-72
2021/12/03 03:31:23;;;;;;;11.73;7.72;;;2.30;99.90;;;;;;5031827;28;20164;-72
2021/12/03 03:33:48;;;;;;;14.15;8.85;;;2.30;99.90;;;;;;5032019;28;20124;-72
2021/12/03 03:36:16;;;;;;;15.65;8.82;;;2.10;99.90;;;;;;5016702;28;20041;-72
2021/12/03 03:38:42;;;;;;;13.43;9.30;;;2.20;99.90;;;;;;5016467;28;20393;-72
2021/12/03 03:41:07;;;;;;;13.35;8.80;;;2.20;99.90;;;;;;5030896;28;20033;-72
2021/12/03 03:43:33;;;;;;;15.63;8.68;;;2.30;99.90;;;;;;5032892;28;20374;-72
2021/12/03 03:45:59;;;;;;;16.02;8.85;;;2.30;99.90;;;;;;5031967;28;20029;-72
2021/12/03 03:48:25;;;;;;;12.30;8.45;;;2.20;99.90;;;;;;5032740;28;20115;-72
2021/12/03 03:50:51;;;;;;;13.75;7.90;;;2.20;99.90;;;;;;5031950;28;20077;-72
2021/12/03 03:53:17;;;;;;;13.40;7.63;;;2.10;99.90;;;;;;5015104;28;20120;-72
2021/12/03 03:55:43;;;;;;;13.15;7.57;;;2.20;99.90;;;;;;5028709;28;20573;-72
2021/12/03 03:58:09;;;;;;;12.48;8.02;;;2.20;99.90;;;;;;5031394;28;20030;-72
2021/12/03 04:00:38;;;;;;;12.25;7.30;;;2.10;99.90;;;;;;5032470;28;20056;-72
2021/12/03 04:03:04;;;;;;;11.77;8.30;;;2.20;99.90;;;;;;5031030;28;20041;-72
2021/12/03 04:05:30;;;;;;;13.02;8.45;;;2.10;99.90;;;;;;5029352;28;20524;-72
2021/12/03 04:07:56;;;;;;;11.80;7.40;;;2.10;99.90;;;;;;5030001;28;20524;-72
2021/12/03 04:10:22;;;;;;;13.48;8.38;;;2.10;99.90;;;;;;5031940;28;20073;-72
2021/12/03 04:12:47;;;;;;;12.98;7.82;;;2.20;99.90;;;;;;5031216;28;20072;-72
2021/12/03 04:15:13;;;;;;;13.38;7.35;;;2.10;99.90;;;;;;5028936;28;20531;-72
2021/12/03 04:17:40;;;;;;;10.68;7.55;;;2.10;99.90;;;;;;5032154;28;20037;-72
2021/12/03 04:20:08;;;;;;;11.43;7.55;;;2.10;99.90;;;;;;5031951;28;20041;-72
2021/12/03 04:22:34;;;;;;;11.48;7.25;;;2.20;99.90;;;;;;5032181;28;20088;-72
2021/12/03 04:25:01;;;;;;;13.50;8.45;;;2.10;99.90;;;;;;5011561;28;20041;-72
2021/12/03 04:27:27;;;;;;;11.25;7.60;;;2.10;99.90;;;;;;5032358;28;20025;-72
2021/12/03 04:29:53;;;;;;;11.73;8.55;;;2.10;99.90;;;;;;5030656;28;20375;-72
2021/12/03 04:32:19;;;;;;;12.15;7.35;;;2.00;99.90;;;;;;5031947;28;20045;-72
2021/12/03 04:34:45;;;;;;;10.43;7.15;;;2.00;99.90;;;;;;5027240;28;20034;-72
2021/12/03 04:37:11;;;;;;;11.50;6.78;;;2.10;99.90;;;;;;5031495;28;20520;-72
2021/12/03 04:39:37;;;;;;;11.57;7.32;;;2.10;99.90;;;;;;5030285;28;20405;-72
2021/12/03 04:42:03;;;;;;;12.05;7.22;;;2.20;99.90;;;;;;5015624;28;20102;-72
2021/12/03 04:44:29;;;;;;;12.48;7.13;;;2.20;99.90;;;;;;5029720;28;20465;-72
2021/12/03 04:46:54;;;;;;;13.85;7.85;;;2.10;99.90;;;;;;5031658;28;20084;-72
2021/12/03 04:49:20;;;;;;;12.40;8.23;;;2.20;99.90;;;;;;5029113;28;20095;-72
2021/12/03 04:51:46;;;;;;;12.98;7.40;;;2.20;99.90;;;;;;5031543;28;20509;-72
2021/12/03 04:54:11;;;;;;;11.57;8.18;;;2.20;99.90;;;;;;5030177;28;20033;-72
2021/12/03 04:56:37;;;;;;;11.82;7.82;;;2.20;99.90;;;;;;5014214;28;20041;-72
2021/12/03 04:59:03;;;;;;;10.55;6.22;;;2.20;99.90;;;;;;5030572;28;20095;-72
2021/12/03 05:01:29;;;;;;;14.27;8.40;;;2.20;99.90;;;;;;5031105;28;20414;-72
2021/12/03 05:03:55;;;;;;;11.85;8.15;;;2.20;99.90;;;;;;5011332;28;20037;-72
2021/12/03 05:06:29;;;;;;;12.25;8.07;;;2.20;99.90;;;;;;5029639;28;20049;-72
2021/12/03 05:08:55;;;;;;;11.82;8.32;;;2.10;99.90;;;;;;5013654;28;20073;-72
2021/12/03 05:11:21;;;;;;;12.82;7.88;;;2.10;99.90;;;;;;5030237;28;20072;-73
2021/12/03 05:13:47;;;;;;;11.68;7.47;;;2.10;99.90;;;;;;5028398;28;20458;-72
2021/12/03 05:16:13;;;;;;;10.40;7.47;;;2.20;99.90;;;;;;5029878;28;20108;-72
2021/12/03 05:18:42;;;;;;;11.45;8.13;;;2.20;99.90;;;;;;5064426;28;20041;-72
2021/12/03 05:21:07;;;;;;;14.00;8.25;;;2.10;99.90;;;;;;5030446;28;20035;-72
2021/12/03 05:23:33;;;;;;;11.48;7.40;;;2.10;99.90;;;;;;5030462;28;20037;-72
2021/12/03 05:25:59;;;;;;;12.88;7.70;;;2.20;99.90;;;;;;5029478;28;20033;-72
2021/12/03 05:28:27;;;;;;;13.10;7.82;;;2.20;99.90;;;;;;5031013;28;20038;-72
2021/12/03 05:30:53;;;;;;;9.20;5.80;;;2.10;99.90;;;;;;5013734;28;20443;-73
2021/12/03 05:33:19;;;;;;;10.52;7.25;;;2.20;99.90;;;;;;5029671;28;20129;-72
2021/12/03 05:35:45;;;;;;;10.73;6.05;;;2.20;99.90;;;;;;5028388;28;20103;-73
2021/12/03 05:38:11;;;;;;;15.32;7.57;;;2.30;99.90;;;;;;5014108;28;20474;-73
2021/12/03 05:40:37;;;;;;;7.53;4.63;;;2.20;99.90;;;;;;5030575;28;20393;-73
2021/12/03 05:43:03;;;;;;;9.60;5.22;;;2.30;99.90;;;;;;5014548;28;20040;-73
2021/12/03 05:45:31;;;;;;;11.02;6.40;;;2.30;99.90;;;;;;5029311;28;20048;-73
2021/12/03 05:47:57;;;;;;;9.13;5.35;;;2.30;99.90;;;;;;5031422;28;20037;-73
2021/12/03 05:50:23;;;;;;;10.98;6.70;;;2.30;99.90;;;;;;5027980;28;20096;-73
2021/12/03 05:52:51;;;;;;;8.73;5.43;;;2.30;99.90;;;;;;5030934;28;20440;-73
2021/12/03 05:55:17;;;;;;;8.85;4.65;;;2.30;99.90;;;;;;5029490;28;20038;-72
2021/12/03 05:57:45;;;;;;;9.95;6.88;;;2.40;99.90;;;;;;5030822;28;20598;-72
2021/12/03 06:00:15;;;;;;;10.43;7.07;;;2.30;99.90;;;;;;5029357;28;20540;-72
2021/12/03 06:02:41;;;;;;;12.75;6.60;;;2.30;99.90;;;;;;5032117;28;20445;-72
2021/12/03 06:05:08;;;;;;;11.77;7.30;;;2.30;99.90;;;;;;5034359;28;20033;-72
2021/12/03 06:07:33;;;;;;;7.28;4.47;;;2.20;99.90;;;;;;5033219;28;20512;-72
2021/12/03 06:09:59;;;;;;;9.85;6.88;;;2.30;99.90;;;;;;5034838;28;20128;-72
2021/12/03 06:12:24;;;;;;;11.48;4.50;;;2.30;99.90;;;;;;5030849;28;20040;-72
2021/12/03 06:14:50;;;;;;;8.18;4.88;;;2.30;99.90;;;;;;5050110;28;20497;-73
2021/12/03 06:17:16;;;;;;;11.55;6.80;;;2.40;99.90;;;;;;5016534;28;20036;-72
2021/12/03 06:19:43;;;;;;;7.88;4.85;;;2.40;99.90;;;;;;5033613;28;20092;-72
2021/12/03 06:22:10;;;;;;;10.73;6.53;;;2.40;99.90;;;;;;5034017;28;20432;-72
2021/12/03 06:24:37;;;;;;;12.90;5.90;;;2.40;99.90;;;;;;5034329;28;20061;-72
2021/12/03 06:27:03;;;;;;;7.25;3.35;;;2.40;99.90;;;;;;5031701;28;20045;-72
2021/12/03 06:29:28;;;;;;;9.77;4.95;;;2.50;99.90;;;;;;5030635;28;20051;-72
2021/12/03 06:31:54;;;;;;;9.20;5.07;;;2.50;99.90;;;;;;5034628;28;20041;-72
2021/12/03 06:34:20;;;;;;;7.85;4.50;;;2.40;99.90;;;;;;5016234;28;20494;-72
2021/12/03 06:36:45;;;;;;;11.38;6.47;;;2.50;99.90;;;;;;5014111;28;20036;-72
2021/12/03 06:39:11;;;;;;;8.15;4.78;;;2.40;99.90;;;;;;5027948;28;20406;-72
2021/12/03 06:41:36;;;;;;;8.73;4.63;;;2.40;99.90;;;;;;5015252;28;20045;-72
2021/12/03 06:44:03;;;;;;;9.27;5.22;;;2.50;99.90;;;;;;5032746;28;20033;-72
2021/12/03 06:46:30;;;;;;;7.93;4.53;;;2.50;99.90;;;;;;5017405;28;20040;-72
2021/12/03 06:48:56;;;;;;;9.07;4.20;;;2.50;99.90;;;;;;5033841;28;20034;-72
2021/12/03 06:51:22;;;;;;;11.00;5.38;;;2.50;99.90;;;;;;5032584;28;20043;-72
2021/12/03 06:54:01;;;;;;;9.43;4.88;;;2.50;99.90;;;;;;5031928;28;20067;-72
2021/12/03 06:56:43;;;;;;;8.43;5.05;;;2.50;99.90;;;;;;5016627;28;20083;-72
2021/12/03 06:59:10;;;;;;;9.02;5.15;;;2.50;99.90;;;;;;5015978;28;20045;-72
2021/12/03 07:01:36;;;;;;;8.07;4.72;;;2.50;99.90;;;;;;5033232;28;20085;-72
2021/12/03 07:04:02;;;;;;;11.73;3.83;;;2.50;99.90;;;;;;5016959;28;20077;-72
2021/12/03 07:06:27;;;;;;;12.60;4.32;;;2.50;99.90;;;;;;5033725;28;20112;-72
2021/12/03 07:08:53;;;;;;;6.85;3.25;;;2.60;99.90;;;;;;5066518;28;20051;-72
2021/12/03 07:11:18;;;;;;;11.05;4.95;;;2.60;99.90;;;;;;5016964;28;20041;-72
2021/12/03 07:13:44;;;;;;;11.10;5.35;;;2.60;99.90;;;;;;5032310;28;20041;-72
2021/12/03 07:16:10;;;;;;;7.60;3.90;;;2.60;99.90;;;;;;5032546;28;20113;-72
2021/12/03 07:18:35;;;;;;;8.65;4.00;;;2.70;99.90;;;;;;5030295;28;20486;-72
2021/12/03 07:21:01;;;;;;;8.77;4.53;;;2.70;99.90;;;;;;5032970;28;20030;-72
2021/12/03 07:23:27;;;;;;;5.70;2.58;;;2.70;99.90;;;;;;5032072;28;20478;-72
2021/12/03 07:25:52;;;;;;;9.07;3.67;;;2.70;99.90;;;;;;5033351;28;20436;-72
2021/12/03 07:28:18;;;;;;;7.40;4.07;;;2.70;99.90;;;;;;5015066;28;20064;-72
2021/12/03 07:30:44;;;;;;;11.65;4.63;;;2.70;99.90;;;;;;5032145;28;20095;-72
2021/12/03 07:33:13;;;;;;;9.32;3.97;;;2.70;99.90;;;;;;5032943;28;20426;-72
2021/12/03 07:35:39;;;;;;;7.72;3.10;;;2.70;99.90;;;;;;5031531;28;20033;-72
2021/12/03 07:38:04;;;;;;;8.90;4.40;;;2.70;99.90;;;;;;5029913;28;20025;-72
2021/12/03 07:40:30;;;;;;;10.38;4.43;;;2.70;99.90;;;;;;5031952;28;20125;-72
2021/12/03 07:42:56;;;;;;;8.05;3.97;;;2.70;99.90;;;;;;5014424;28;20029;-72
2021/12/03 07:45:22;;;;;;;8.60;3.30;;;2.70;99.90;;;;;;5028755;28;20041;-72
2021/12/03 07:47:47;;;;;;;9.50;4.72;;;2.80;99.90;;;;;;5028445;28;21482;-72
2021/12/03 07:50:13;;;;;;;11.07;5.18;;;2.80;99.90;;;;;;5031648;28;20175;-72
2021/12/03 07:52:39;;;;;;;10.43;4.80;;;2.70;99.90;;;;;;5030276;28;20053;-72
2021/12/03 07:55:06;;;;;;;10.45;5.13;;;2.70;99.90;;;;;;5015375;28;20038;-72
2021/12/03 07:57:32;;;;;;;9.05;4.85;;;2.70;99.90;;;;;;5030661;28;20152;-72
2021/12/03 07:59:58;;;;;;;10.07;4.85;;;2.80;99.90;;;;;;5014393;28;20125;-72
2021/12/03 08:02:24;;;;;;;9.90;4.47;;;2.80;99.90;;;;;;5030260;28;20526;-73
2021/12/03 08:04:49;;;;;;;9.15;4.53;;;2.90;99.90;;;;;;5030411;28;20041;-72
2021/12/03 08:07:15;;;;;;;10.43;4.93;;;2.90;99.90;;;;;;5029964;28;20592;-72
2021/12/03 08:09:41;;;;;;;12.77;5.18;;;3.00;99.90;;;;;;5032250;28;20053;-73
2021/12/03 08:12:07;;;;;;;12.25;4.30;;;3.00;99.90;;;;;;5027660;28;20123;-72
2021/12/03 08:14:32;;;;;;;9.57;5.07;;;3.00;99.90;;;;;;5014264;28;20475;-72
2021/12/03 08:16:58;;;;;;;9.55;4.82;;;2.90;99.90;;;;;;5030282;28;20029;-73
2021/12/03 08:19:23;;;;;;;11.85;4.80;;;3.00;99.90;;;;;;5030091;28;20499;-72
2021/12/03 08:21:49;;;;;;;6.90;3.30;;;2.90;99.90;;;;;;5031725;28;20033;-72
2021/12/03 08:24:15;;;;;;;9.50;4.47;;;3.00;99.90;;;;;;5031899;28;20041;-72
2021/12/03 08:26:41;;;;;;;11.10;5.47;;;3.10;99.90;;;;;;5029029;28;20039;-72
2021/12/03 08:29:06;;;;;;;9.30;4.28;;;3.10;99.90;;;;;;5031367;28;20037;-72
2021/12/03 08:31:33;;;;;;;11.07;4.50;;;3.10;99.90;;;;;;5030230;28;20045;-72
2021/12/03 08:33:58;;;;;;;11.13;4.55;;;3.10;99.90;;;;;;5029363;28;20037;-73
2021/12/03 08:36:24;;;;;;;8.13;3.85;;;3.20;99.90;;;;;;5031171;28;20033;-72
2021/12/03 08:38:50;;;;;;;8.75;4.55;;;3.10;99.90;;;;;;5031032;28;20057;-72
2021/12/03 08:41:17;;;;;;;10.77;3.60;;;3.20;99.90;;;;;;5029507;28;20124;-72
2021/12/03 08:43:47;;;;;;;11.38;6.57;;;3.20;99.90;;;;;;5032987;28;20095;-72
2021/12/03 08:46:19;;;;;;;9.40;5.15;;;3.20;99.90;;;;;;5029054;28;20120;-72
2021/12/03 08:48:47;;;;;;;12.45;6.50;;;3.20;99.90;;;;;;5028542;28;20091;-72
2021/12/03 08:56:23;;;;;;;13.50;6.50;;;3.20;99.90;;;;;;5026629;28;20041;-71
2021/12/03 08:58:48;;;;;;;13.77;6.55;;;3.30;99.90;;;;;;5015369;28;20121;-71
2021/12/03 09:01:14;;;;;;;13.85;6.63;;;3.30;99.90;;;;;;5028714;28;20046;-72
2021/12/03 09:03:40;;;;;;;13.38;6.88;;;3.40;99.90;;;;;;5027690;28;20429;-72
2021/12/03 09:06:06;;;;;;;13.60;6.97;;;3.40;99.90;;;;;;5029715;28;20485;-72
2021/12/03 09:08:31;;;;;;;10.68;5.47;;;3.40;99.90;;;;;;5014132;28;20083;-72
2021/12/03 09:10:57;;;;;;;13.95;7.95;;;3.40;99.90;;;;;;5027462;28;20032;-72
2021/12/03 09:13:23;;;;;;;16.65;9.10;;;3.50;99.90;;;;;;5031634;28;20076;-72
2021/12/03 09:16:03;;;;;;;15.95;8.48;;;3.40;99.90;;;;;;5030078;28;20039;-72
2021/12/03 09:18:34;;;;;;;12.43;6.85;;;3.40;99.90;;;;;;5026617;28;20136;-72
2021/12/03 09:21:03;;;;;;;16.63;8.32;;;3.50;99.90;;;;;;5030643;28;20484;-72
2021/12/03 09:26:05;;;;;;;16.85;10.27;;;3.60;99.90;;;;;;5030109;28;20033;-72
2021/12/03 09:28:31;;;;;;;19.23;10.27;;;3.50;99.90;;;;;;5031572;28;20052;-72
2021/12/03 09:30:57;;;;;;;20.23;10.95;;;3.60;99.90;;;;;;5030546;28;20049;-72
2021/12/03 09:33:28;;;;;;;17.58;9.40;;;3.60;99.90;;;;;;5028290;28;20482;-72
2021/12/03 09:35:57;;;;;;;19.33;10.20;;;3.60;99.90;;;;;;5030098;28;20041;-72
2021/12/03 09:38:24;;;;;;;19.08;10.88;;;3.60;99.90;;;;;;5031069;28;20457;-72
2021/12/03 09:40:50;;;;;;;13.85;7.60;;;3.60;99.90;;;;;;5035305;28;20090;-72
2021/12/03 09:43:16;;;;;;;11.00;6.03;;;3.60;99.90;;;;;;5034607;28;20116;-72
2021/12/03 09:45:51;;;;;;;17.35;10.20;;;3.70;99.90;;;;;;5034674;28;20041;-72
2021/12/03 09:48:30;;;;;;;22.50;11.43;;;3.70;99.90;;;;;;5035084;28;20398;-73
2021/12/03 09:50:56;;;;;;;20.63;11.73;;;3.70;99.90;;;;;;5032494;28;20140;-72
2021/12/03 09:53:36;;;;;;;17.33;8.13;;;3.70;99.90;;;;;;5034902;28;20191;-72
2021/12/03 09:56:02;;;;;;;18.67;8.43;;;3.80;99.90;;;;;;5034612;28;20037;-73
2021/12/03 10:01:10;;;;;;;22.25;10.98;;;3.80;99.90;;;;;;5033063;28;20049;-73
2021/12/03 10:03:51;;;;;;;18.55;11.25;;;3.70;99.90;;;;;;5033621;28;20485;-72
2021/12/03 10:12:16;;;;;;;17.55;9.35;;;3.90;99.90;;;;;;5033682;28;20072;-72
2021/12/03 10:31:23;;;;;;;17.85;6.40;;;4.10;99.90;;;;;;5034393;28;20045;-72
2021/12/03 10:39:43;;;;;;;18.97;8.37;;;4.20;99.90;;;;;;5033267;28;20120;-72
2021/12/03 10:56:14;;;;;;;11.55;5.10;;;4.30;99.90;;;;;;5032662;28;20383;-73
2021/12/03 11:06:55;;;;;;;13.35;4.45;;;4.20;99.90;;;;;;5034441;28;20049;-72
2021/12/03 11:34:43;;;;;;;5.57;2.55;;;4.30;99.90;;;;;;5033943;28;20495;-72
2021/12/03 11:37:33;;;;;;;8.98;3.25;;;4.40;99.90;;;;;;5033497;28;20088;-72
2021/12/03 12:05:28;;;;;;;;;;;4.20;99.90;;;;;;5032767;28;20049;-72
2021/12/03 12:11:40;;;;;;;9.98;3.05;;;4.20;99.90;;;;;;5016107;28;20045;-72
2021/12/03 12:19:39;;;;;;;7.95;3.10;;;4.20;99.90;;;;;;5032623;28;20549;-72
2021/12/03 12:25:34;;;;;;;10.03;3.27;;;4.10;99.90;;;;;;5017659;28;20038;-72
2021/12/03 12:40:37;;;;;;;6.38;2.05;;;3.90;99.90;;;;;;5033396;28;20095;-72
2021/12/03 13:25:05;;;;;;;10.23;3.65;;;4.10;99.90;;;;;;5032577;28;20152;-72
2021/12/03 14:00:05;;;;;;;12.10;3.60;;;4.20;99.90;;;;;;5032032;28;20051;-72
2021/12/03 14:20:17;;;;;;;5.75;2.58;;;4.20;99.90;;;;;;5032173;28;20037;-72
2021/12/03 14:47:34;;;;;;;12.32;4.43;;;4.50;99.90;;;;;;5035251;28;20041;-72
2021/12/03 14:52:44;;;;;;;3.20;1.75;;;4.50;99.90;;;;;;5035410;28;20099;-72
2021/12/03 14:55:10;;;;;;;9.75;4.35;;;4.60;99.90;;;;;;5035092;28;20069;-72
2021/12/03 14:57:56;;;;;;;8.40;4.05;;;4.60;99.90;;;;;;5033856;28;20057;-73
2021/12/03 15:08:42;;;;;;;8.75;3.63;;;4.70;99.90;;;;;;5034982;28;20034;-72
2021/12/03 15:27:14;;;;;;;9.73;4.65;;;4.70;99.90;;;;;;5033307;28;20129;-72
2021/12/03 15:32:12;;;;;;;7.60;4.15;;;4.80;99.90;;;;;;5033432;28;20402;-72
2021/12/03 15:35:03;;;;;;;9.10;4.43;;;4.80;99.90;;;;;;5033919;28;20529;-72
2021/12/03 15:40:24;;;;;;;6.30;3.40;;;4.90;99.90;;;;;;5034286;28;20069;-72
2021/12/03 15:56:58;;;;;;;6.80;4.57;;;4.90;99.90;;;;;;5033076;28;20044;-72
2021/12/03 16:04:46;;;;;;;10.10;5.80;;;5.00;99.90;;;;;;5032818;28;20102;-72
2021/12/03 16:07:23;;;;;;;8.52;4.22;;;4.90;99.90;;;;;;5032749;28;20489;-72
2021/12/03 16:10:07;;;;;;;8.35;3.78;;;4.90;99.90;;;;;;5016155;28;20044;-72
2021/12/03 16:18:31;;;;;;;9.40;5.85;;;5.00;99.90;;;;;;5033702;28;20072;-72
2021/12/03 16:21:29;;;;;;;9.43;5.32;;;4.90;99.90;;;;;;5033529;28;20045;-72
2021/12/03 16:26:48;;;;;;;7.40;4.30;;;5.00;99.90;;;;;;5033317;28;20053;-72
2021/12/03 16:53:26;;;;;;;6.78;3.83;;;5.00;99.90;;;;;;5032933;28;20037;-72
2021/12/03 16:56:03;;;;;;;11.10;5.90;;;5.00;99.90;;;;;;5031599;28;20049;-72
2021/12/03 16:58:29;;;;;;;8.75;6.18;;;5.00;99.90;;;;;;5048038;28;20038;-72
2021/12/03 17:01:07;;;;;;;9.85;6.10;;;5.00;99.90;;;;;;5031688;28;20461;-72
2021/12/03 17:03:45;;;;;;;6.97;4.40;;;5.00;99.90;;;;;;5031554;28;20547;-72
2021/12/03 17:07:07;;;;;;;10.77;6.72;;;5.00;99.90;;;;;;5048391;28;20080;-72
2021/12/03 17:46:26;;;;;;;12.68;7.55;;;5.10;99.90;;;;;;5031027;28;20037;-72
2021/12/03 17:49:00;;;;;;;10.02;5.72;;;5.10;99.90;;;;;;5032590;28;20038;-72
2021/12/03 17:54:31;;;;;;;11.45;8.38;;;5.00;99.90;;;;;;5032275;28;20056;-72
2021/12/03 17:56:51;;;;;;;12.38;7.18;;;5.10;99.90;;;;;;5030463;28;20033;-72
2021/12/03 17:59:20;;;;;;;10.38;6.85;;;5.10;99.90;;;;;;5033004;28;20128;-72
2021/12/03 18:01:52;;;;;;;10.82;7.00;;;5.10;99.90;;;;;;5034730;28;20039;-72
2021/12/03 18:04:26;;;;;;;10.27;6.72;;;5.10;99.90;;;;;;5036275;28;20098;-72
2021/12/03 18:17:56;;;;;;;12.07;8.95;;;5.10;99.90;;;;;;5035697;28;20048;-72
2021/12/03 18:55:44;;;;;;;12.63;8.30;;;5.10;99.90;;;;;;5033923;28;20132;-72
2021/12/03 18:58:10;;;;;;;16.35;8.90;;;5.20;99.90;;;;;;5035140;28;20088;-71
2021/12/03 19:00:46;;;;;;;14.90;10.43;;;5.10;99.90;;;;;;5033651;28;20053;-72
2021/12/03 19:06:17;;;;;;;15.40;11.10;;;5.20;99.90;;;;;;5014081;28;20119;-72
2021/12/03 19:08:56;;;;;;;15.57;11.60;;;5.30;99.90;;;;;;5034901;28;20048;-72
2021/12/03 19:11:43;;;;;;;13.52;8.38;;;5.30;99.90;;;;;;5034830;28;20069;-72
2021/12/03 19:14:09;;;;;;;18.30;12.20;;;5.20;99.90;;;;;;5034853;28;20048;-72
2021/12/03 19:16:35;;;;;;;12.18;7.45;;;5.30;99.90;;;;;;5034991;28;20034;-72
2021/12/03 19:19:04;;;;;;;14.10;8.48;;;5.30;99.90;;;;;;5033756;28;20432;-72
2021/12/03 19:21:33;;;;;;;17.20;9.55;;;5.30;99.90;;;;;;5033411;28;20033;-72
2021/12/03 19:24:01;;;;;;;18.33;10.73;;;5.30;99.90;;;;;;5034649;28;20042;-72
2021/12/03 19:26:29;;;;;;;18.20;12.48;;;5.30;99.90;;;;;;5033499;28;20033;-72
2021/12/03 19:28:55;;;;;;;19.60;15.43;;;5.30;99.90;;;;;;5033280;28;20478;-72
2021/12/03 19:31:23;;;;;;;21.27;11.40;;;5.30;99.90;;;;;;5034763;28;20087;-72
2021/12/03 19:33:48;;;;;;;14.77;9.25;;;5.30;99.90;;;;;;5034335;28;20073;-72
2021/12/03 19:36:25;;;;;;;16.35;10.93;;;5.30;99.90;;;;;;5033198;28;20061;-72
2021/12/03 19:38:53;;;;;;;15.98;10.18;;;5.30;99.90;;;;;;5033239;28;20033;-72
2021/12/03 19:41:38;;;;;;;19.88;14.57;;;5.30;99.90;;;;;;5034448;28;20037;-72
2021/12/03 19:44:09;;;;;;;14.48;8.93;;;5.30;99.90;;;;;;5034212;28;20498;-72
2021/12/03 19:46:38;;;;;;;17.85;10.93;;;5.30;99.90;;;;;;5034293;28;20060;-72
2021/12/03 19:51:42;;;;;;;17.67;10.52;;;5.40;99.90;;;;;;5034339;28;20107;-72
2021/12/03 19:54:08;;;;;;;21.80;15.35;;;5.30;99.90;;;;;;5032811;28;20500;-72
2021/12/03 19:56:34;;;;;;;15.88;8.77;;;5.20;99.90;;;;;;5034123;28;20037;-72
2021/12/03 19:59:01;;;;;;;20.38;13.23;;;5.30;99.90;;;;;;5033654;28;20494;-72
2021/12/03 20:01:32;;;;;;;23.48;15.95;;;5.40;99.90;;;;;;5016376;28;20087;-72
2021/12/03 20:03:58;;;;;;;15.18;9.35;;;5.30;99.90;;;;;;5034182;28;20111;-72